sensor_id;sensor_type;location;lat;lon;timestamp;temperature;humidity
75799;DHT22;70933;44.692;37.776;2024-03-02T00:00:12;24.10;15.45
75799;DHT22;70933;44.692;37.776;2024-03-02T00:01:15;24.10;15.74
75799;DHT22;70933;44.692;37.776;2024-03-02T00:02:16;24.11;15.51
75799;DHT22;70933;44.692;37.776;2024-03-02T00:03:19;24.10;15.34
75799;DHT22;70933;44.692;37.776;2024-03-02T00:04:24;24.11;15.45
75799;DHT22;70933;44.692;37.776;2024-03-02T00:05:26;24.11;15.61
75799;DHT22;70933;44.692;37.776;2024-03-02T00:06:28;24.10;15.49
75799;DHT22;70933;44.692;37.776;2024-03-02T00:07:29;24.11;15.58
75799;DHT22;70933;44.692;37.776;2024-03-02T00:08:31;24.11;15.48
75799;DHT22;70933;44.692;37.776;2024-03-02T00:09:33;24.10;15.41
75799;DHT22;70933;44.692;37.776;2024-03-02T00:10:36;24.09;15.48
75799;DHT22;70933;44.692;37.776;2024-03-02T00:11:41;24.11;15.27
75799;DHT22;70933;44.692;37.776;2024-03-02T00:12:42;24.10;15.49
75799;DHT22;70933;44.692;37.776;2024-03-02T00:13:45;24.11;15.23
75799;DHT22;70933;44.692;37.776;2024-03-02T00:14:47;24.10;15.24
75799;DHT22;70933;44.692;37.776;2024-03-02T00:15:52;24.11;15.51
75799;DHT22;70933;44.692;37.776;2024-03-02T00:16:55;24.11;15.57
75799;DHT22;70933;44.692;37.776;2024-03-02T00:18:01;24.11;15.40
75799;DHT22;70933;44.692;37.776;2024-03-02T00:19:03;24.11;15.39
75799;DHT22;70933;44.692;37.776;2024-03-02T00:20:09;24.11;15.42
75799;DHT22;70933;44.692;37.776;2024-03-02T00:21:11;24.11;15.09
75799;DHT22;70933;44.692;37.776;2024-03-02T00:22:16;24.12;15.19
75799;DHT22;70933;44.692;37.776;2024-03-02T00:23:18;24.11;15.46
75799;DHT22;70933;44.692;37.776;2024-03-02T00:24:33;24.11;15.26
75799;DHT22;70933;44.692;37.776;2024-03-02T00:25:38;24.11;15.32
75799;DHT22;70933;44.692;37.776;2024-03-02T00:26:44;24.10;15.00
75799;DHT22;70933;44.692;37.776;2024-03-02T00:27:49;24.11;15.24
75799;DHT22;70933;44.692;37.776;2024-03-02T00:28:54;24.11;15.24
75799;DHT22;70933;44.692;37.776;2024-03-02T00:29:57;24.11;15.36
75799;DHT22;70933;44.692;37.776;2024-03-02T00:32:03;24.11;15.16
75799;DHT22;70933;44.692;37.776;2024-03-02T00:33:07;24.11;15.35
75799;DHT22;70933;44.692;37.776;2024-03-02T00:34:12;24.11;15.32
75799;DHT22;70933;44.692;37.776;2024-03-02T00:35:15;24.11;15.34
75799;DHT22;70933;44.692;37.776;2024-03-02T00:36:24;24.11;15.23
75799;DHT22;70933;44.692;37.776;2024-03-02T00:37:25;24.11;15.12
75799;DHT22;70933;44.692;37.776;2024-03-02T00:38:27;24.13;14.97
75799;DHT22;70933;44.692;37.776;2024-03-02T00:39:30;24.13;15.19
75799;DHT22;70933;44.692;37.776;2024-03-02T00:40:32;24.12;15.31
75799;DHT22;70933;44.692;37.776;2024-03-02T00:41:33;24.12;15.23
75799;DHT22;70933;44.692;37.776;2024-03-02T00:42:35;24.13;15.05
75799;DHT22;70933;44.692;37.776;2024-03-02T00:43:58;24.13;15.18
75799;DHT22;70933;44.692;37.776;2024-03-02T00:45:00;24.12;14.98
75799;DHT22;70933;44.692;37.776;2024-03-02T00:46:03;24.13;14.83
75799;DHT22;70933;44.692;37.776;2024-03-02T00:47:05;24.13;15.05
75799;DHT22;70933;44.692;37.776;2024-03-02T00:48:09;24.13;14.96
75799;DHT22;70933;44.692;37.776;2024-03-02T00:49:21;24.12;14.87
75799;DHT22;70933;44.692;37.776;2024-03-02T00:50:23;24.13;14.83
75799;DHT22;70933;44.692;37.776;2024-03-02T00:51:27;24.13;14.94
75799;DHT22;70933;44.692;37.776;2024-03-02T00:52:29;24.12;14.89
75799;DHT22;70933;44.692;37.776;2024-03-02T00:53:32;24.12;15.03
75799;DHT22;70933;44.692;37.776;2024-03-02T00:54:34;24.12;14.77
75799;DHT22;70933;44.692;37.776;2024-03-02T00:55:37;24.12;14.84
75799;DHT22;70933;44.692;37.776;2024-03-02T00:56:41;24.12;15.01
75799;DHT22;70933;44.692;37.776;2024-03-02T00:57:44;24.11;14.91
75799;DHT22;70933;44.692;37.776;2024-03-02T00:58:46;24.11;14.84
75799;DHT22;70933;44.692;37.776;2024-03-02T00:59:47;24.12;14.83
75799;DHT22;70933;44.692;37.776;2024-03-02T01:00:49;24.11;14.79
75799;DHT22;70933;44.692;37.776;2024-03-02T01:01:51;24.11;14.74
75799;DHT22;70933;44.692;37.776;2024-03-02T01:02:53;24.11;14.90
75799;DHT22;70933;44.692;37.776;2024-03-02T01:03:55;24.11;14.81
75799;DHT22;70933;44.692;37.776;2024-03-02T01:04:57;24.10;14.65
75799;DHT22;70933;44.692;37.776;2024-03-02T01:05:59;24.11;14.67
75799;DHT22;70933;44.692;37.776;2024-03-02T01:07:00;24.10;15.04
75799;DHT22;70933;44.692;37.776;2024-03-02T01:08:02;24.12;14.94
75799;DHT22;70933;44.692;37.776;2024-03-02T01:09:04;24.11;14.90
75799;DHT22;70933;44.692;37.776;2024-03-02T01:10:05;24.11;14.87
75799;DHT22;70933;44.692;37.776;2024-03-02T01:11:07;24.11;14.98
75799;DHT22;70933;44.692;37.776;2024-03-02T01:12:09;24.12;14.81
75799;DHT22;70933;44.692;37.776;2024-03-02T01:13:11;24.11;14.97
75799;DHT22;70933;44.692;37.776;2024-03-02T01:14:13;24.11;14.65
75799;DHT22;70933;44.692;37.776;2024-03-02T01:15:14;24.12;14.94
75799;DHT22;70933;44.692;37.776;2024-03-02T01:16:16;24.10;14.84
75799;DHT22;70933;44.692;37.776;2024-03-02T01:17:18;24.11;15.06
75799;DHT22;70933;44.692;37.776;2024-03-02T01:18:19;24.12;15.12
75799;DHT22;70933;44.692;37.776;2024-03-02T01:19:22;24.11;14.88
75799;DHT22;70933;44.692;37.776;2024-03-02T01:20:23;24.12;14.63
75799;DHT22;70933;44.692;37.776;2024-03-02T01:21:26;24.11;15.04
75799;DHT22;70933;44.692;37.776;2024-03-02T01:22:27;24.12;14.93
75799;DHT22;70933;44.692;37.776;2024-03-02T01:23:29;24.13;14.71
75799;DHT22;70933;44.692;37.776;2024-03-02T01:24:31;24.12;14.99
75799;DHT22;70933;44.692;37.776;2024-03-02T01:25:32;24.13;14.84
75799;DHT22;70933;44.692;37.776;2024-03-02T01:26:34;24.13;14.74
75799;DHT22;70933;44.692;37.776;2024-03-02T01:27:36;24.13;14.83
75799;DHT22;70933;44.692;37.776;2024-03-02T01:28:37;24.12;14.77
75799;DHT22;70933;44.692;37.776;2024-03-02T01:29:39;24.13;14.97
75799;DHT22;70933;44.692;37.776;2024-03-02T01:30:41;24.12;14.86
75799;DHT22;70933;44.692;37.776;2024-03-02T01:31:42;24.12;14.96
75799;DHT22;70933;44.692;37.776;2024-03-02T01:32:44;24.13;14.90
75799;DHT22;70933;44.692;37.776;2024-03-02T01:33:45;24.13;14.84
75799;DHT22;70933;44.692;37.776;2024-03-02T01:34:47;24.13;15.00
75799;DHT22;70933;44.692;37.776;2024-03-02T01:35:49;24.14;14.74
75799;DHT22;70933;44.692;37.776;2024-03-02T01:36:51;24.13;14.67
75799;DHT22;70933;44.692;37.776;2024-03-02T01:37:52;24.12;14.88
75799;DHT22;70933;44.692;37.776;2024-03-02T01:38:53;24.12;14.71
75799;DHT22;70933;44.692;37.776;2024-03-02T01:39:55;24.13;14.79
75799;DHT22;70933;44.692;37.776;2024-03-02T01:40:57;24.13;14.84
75799;DHT22;70933;44.692;37.776;2024-03-02T01:41:59;24.13;14.94
75799;DHT22;70933;44.692;37.776;2024-03-02T01:43:01;24.12;14.77
75799;DHT22;70933;44.692;37.776;2024-03-02T01:44:04;24.13;14.95
75799;DHT22;70933;44.692;37.776;2024-03-02T01:45:07;24.13;14.74
75799;DHT22;70933;44.692;37.776;2024-03-02T01:46:09;24.13;14.84
75799;DHT22;70933;44.692;37.776;2024-03-02T01:47:11;24.14;14.68
75799;DHT22;70933;44.692;37.776;2024-03-02T01:48:13;24.13;14.66
75799;DHT22;70933;44.692;37.776;2024-03-02T01:49:14;24.13;14.76
75799;DHT22;70933;44.692;37.776;2024-03-02T01:50:24;24.13;14.80
75799;DHT22;70933;44.692;37.776;2024-03-02T01:51:25;24.13;14.77
75799;DHT22;70933;44.692;37.776;2024-03-02T01:52:27;24.14;14.98
75799;DHT22;70933;44.692;37.776;2024-03-02T01:53:29;24.13;14.68
75799;DHT22;70933;44.692;37.776;2024-03-02T01:54:32;24.15;14.81
75799;DHT22;70933;44.692;37.776;2024-03-02T01:55:34;24.14;14.69
75799;DHT22;70933;44.692;37.776;2024-03-02T01:56:35;24.13;14.72
75799;DHT22;70933;44.692;37.776;2024-03-02T01:57:37;24.13;14.72
75799;DHT22;70933;44.692;37.776;2024-03-02T01:58:39;24.14;14.76
75799;DHT22;70933;44.692;37.776;2024-03-02T01:59:40;24.14;14.96
75799;DHT22;70933;44.692;37.776;2024-03-02T02:00:42;24.14;14.90
75799;DHT22;70933;44.692;37.776;2024-03-02T02:01:43;24.14;14.66
75799;DHT22;70933;44.692;37.776;2024-03-02T02:02:45;24.14;14.87
75799;DHT22;70933;44.692;37.776;2024-03-02T02:03:47;24.13;14.84
75799;DHT22;70933;44.692;37.776;2024-03-02T02:04:50;24.13;14.81
75799;DHT22;70933;44.692;37.776;2024-03-02T02:05:51;24.13;14.82
75799;DHT22;70933;44.692;37.776;2024-03-02T02:06:54;24.13;14.51
75799;DHT22;70933;44.692;37.776;2024-03-02T02:07:55;24.14;14.82
75799;DHT22;70933;44.692;37.776;2024-03-02T02:09:00;24.14;14.87
75799;DHT22;70933;44.692;37.776;2024-03-02T02:10:01;24.14;14.45
75799;DHT22;70933;44.692;37.776;2024-03-02T02:11:08;24.13;14.48
75799;DHT22;70933;44.692;37.776;2024-03-02T02:12:09;24.12;14.65
75799;DHT22;70933;44.692;37.776;2024-03-02T02:13:12;24.12;14.36
75799;DHT22;70933;44.692;37.776;2024-03-02T02:14:14;24.12;14.78
75799;DHT22;70933;44.692;37.776;2024-03-02T02:15:25;24.11;14.44
75799;DHT22;70933;44.692;37.776;2024-03-02T02:16:28;24.12;14.60
75799;DHT22;70933;44.692;37.776;2024-03-02T02:17:29;24.13;14.41
75799;DHT22;70933;44.692;37.776;2024-03-02T02:18:31;24.13;14.50
75799;DHT22;70933;44.692;37.776;2024-03-02T02:19:32;24.13;14.43
75799;DHT22;70933;44.692;37.776;2024-03-02T02:20:34;24.12;14.36
75799;DHT22;70933;44.692;37.776;2024-03-02T02:21:35;24.12;14.45
75799;DHT22;70933;44.692;37.776;2024-03-02T02:22:37;24.12;14.56
75799;DHT22;70933;44.692;37.776;2024-03-02T02:23:38;24.13;14.42
75799;DHT22;70933;44.692;37.776;2024-03-02T02:24:41;24.12;14.31
75799;DHT22;70933;44.692;37.776;2024-03-02T02:25:43;24.13;14.40
75799;DHT22;70933;44.692;37.776;2024-03-02T02:26:46;24.12;14.36
75799;DHT22;70933;44.692;37.776;2024-03-02T02:27:47;24.12;14.16
75799;DHT22;70933;44.692;37.776;2024-03-02T02:28:50;24.12;14.29
75799;DHT22;70933;44.692;37.776;2024-03-02T02:29:52;24.11;14.14
75799;DHT22;70933;44.692;37.776;2024-03-02T02:30:54;24.11;14.20
75799;DHT22;70933;44.692;37.776;2024-03-02T02:31:57;24.12;14.29
75799;DHT22;70933;44.692;37.776;2024-03-02T02:32:59;24.11;14.07
75799;DHT22;70933;44.692;37.776;2024-03-02T02:34:01;24.12;14.48
75799;DHT22;70933;44.692;37.776;2024-03-02T02:35:02;24.11;14.34
75799;DHT22;70933;44.692;37.776;2024-03-02T02:36:05;24.11;14.42
75799;DHT22;70933;44.692;37.776;2024-03-02T02:37:06;24.12;14.13
75799;DHT22;70933;44.692;37.776;2024-03-02T02:38:08;24.12;14.10
75799;DHT22;70933;44.692;37.776;2024-03-02T02:39:15;24.12;14.20
75799;DHT22;70933;44.692;37.776;2024-03-02T02:40:19;24.13;13.58
75799;DHT22;70933;44.692;37.776;2024-03-02T02:41:21;24.12;14.09
75799;DHT22;70933;44.692;37.776;2024-03-02T02:42:22;24.12;13.91
75799;DHT22;70933;44.692;37.776;2024-03-02T02:43:24;24.12;13.97
75799;DHT22;70933;44.692;37.776;2024-03-02T02:44:26;24.11;14.16
75799;DHT22;70933;44.692;37.776;2024-03-02T02:45:28;24.11;13.91
75799;DHT22;70933;44.692;37.776;2024-03-02T02:46:29;24.12;14.12
75799;DHT22;70933;44.692;37.776;2024-03-02T02:47:31;24.11;14.24
75799;DHT22;70933;44.692;37.776;2024-03-02T02:48:35;24.10;14.14
75799;DHT22;70933;44.692;37.776;2024-03-02T02:49:36;24.12;13.81
75799;DHT22;70933;44.692;37.776;2024-03-02T02:50:38;24.11;13.84
75799;DHT22;70933;44.692;37.776;2024-03-02T02:51:39;24.10;13.58
75799;DHT22;70933;44.692;37.776;2024-03-02T02:52:42;24.11;14.02
75799;DHT22;70933;44.692;37.776;2024-03-02T02:53:43;24.11;14.18
75799;DHT22;70933;44.692;37.776;2024-03-02T02:54:49;24.10;13.39
75799;DHT22;70933;44.692;37.776;2024-03-02T02:55:50;24.11;13.77
75799;DHT22;70933;44.692;37.776;2024-03-02T02:56:52;24.10;13.72
75799;DHT22;70933;44.692;37.776;2024-03-02T02:57:53;24.10;13.78
75799;DHT22;70933;44.692;37.776;2024-03-02T02:58:56;24.10;13.58
75799;DHT22;70933;44.692;37.776;2024-03-02T02:59:58;24.09;13.55
75799;DHT22;70933;44.692;37.776;2024-03-02T03:00:59;24.08;13.39
75799;DHT22;70933;44.692;37.776;2024-03-02T03:02:01;24.09;12.65
75799;DHT22;70933;44.692;37.776;2024-03-02T03:03:03;24.08;13.49
75799;DHT22;70933;44.692;37.776;2024-03-02T03:04:04;24.08;13.46
75799;DHT22;70933;44.692;37.776;2024-03-02T03:05:06;24.09;13.57
75799;DHT22;70933;44.692;37.776;2024-03-02T03:06:09;24.08;13.62
75799;DHT22;70933;44.692;37.776;2024-03-02T03:07:11;24.08;13.52
75799;DHT22;70933;44.692;37.776;2024-03-02T03:08:12;24.08;13.32
75799;DHT22;70933;44.692;37.776;2024-03-02T03:09:14;24.06;13.50
75799;DHT22;70933;44.692;37.776;2024-03-02T03:10:16;24.06;13.44
75799;DHT22;70933;44.692;37.776;2024-03-02T03:11:19;24.05;13.70
75799;DHT22;70933;44.692;37.776;2024-03-02T03:12:21;24.06;13.66
75799;DHT22;70933;44.692;37.776;2024-03-02T03:13:22;24.05;13.33
75799;DHT22;70933;44.692;37.776;2024-03-02T03:14:24;24.05;13.26
75799;DHT22;70933;44.692;37.776;2024-03-02T03:15:25;24.08;13.42
75799;DHT22;70933;44.692;37.776;2024-03-02T03:16:27;24.06;13.65
75799;DHT22;70933;44.692;37.776;2024-03-02T03:17:29;24.05;13.62
75799;DHT22;70933;44.692;37.776;2024-03-02T03:18:30;24.06;13.56
75799;DHT22;70933;44.692;37.776;2024-03-02T03:19:32;24.06;13.45
75799;DHT22;70933;44.692;37.776;2024-03-02T03:20:33;24.06;13.46
75799;DHT22;70933;44.692;37.776;2024-03-02T03:21:36;24.06;13.58
75799;DHT22;70933;44.692;37.776;2024-03-02T03:22:37;24.06;13.78
75799;DHT22;70933;44.692;37.776;2024-03-02T03:23:39;24.06;13.58
75799;DHT22;70933;44.692;37.776;2024-03-02T03:24:40;24.08;13.77
75799;DHT22;70933;44.692;37.776;2024-03-02T03:25:43;24.08;13.52
75799;DHT22;70933;44.692;37.776;2024-03-02T03:26:44;24.06;13.71
75799;DHT22;70933;44.692;37.776;2024-03-02T03:27:46;24.06;13.57
75799;DHT22;70933;44.692;37.776;2024-03-02T03:28:49;24.08;13.65
75799;DHT22;70933;44.692;37.776;2024-03-02T03:29:51;24.08;13.75
75799;DHT22;70933;44.692;37.776;2024-03-02T03:30:52;24.06;13.62
75799;DHT22;70933;44.692;37.776;2024-03-02T03:31:55;24.06;13.46
75799;DHT22;70933;44.692;37.776;2024-03-02T03:32:57;24.08;13.68
75799;DHT22;70933;44.692;37.776;2024-03-02T03:33:58;24.06;13.45
75799;DHT22;70933;44.692;37.776;2024-03-02T03:35:00;24.05;13.70
75799;DHT22;70933;44.692;37.776;2024-03-02T03:36:02;24.05;13.49
75799;DHT22;70933;44.692;37.776;2024-03-02T03:37:04;24.05;13.62
75799;DHT22;70933;44.692;37.776;2024-03-02T03:38:06;24.04;13.66
75799;DHT22;70933;44.692;37.776;2024-03-02T03:39:07;24.06;13.80
75799;DHT22;70933;44.692;37.776;2024-03-02T03:40:09;24.04;13.58
75799;DHT22;70933;44.692;37.776;2024-03-02T03:41:11;24.05;13.74
75799;DHT22;70933;44.692;37.776;2024-03-02T03:42:13;24.03;13.49
75799;DHT22;70933;44.692;37.776;2024-03-02T03:43:14;24.05;13.49
75799;DHT22;70933;44.692;37.776;2024-03-02T03:44:18;24.04;13.67
75799;DHT22;70933;44.692;37.776;2024-03-02T03:45:20;24.04;13.65
75799;DHT22;70933;44.692;37.776;2024-03-02T03:46:22;24.04;13.86
75799;DHT22;70933;44.692;37.776;2024-03-02T03:47:23;24.05;13.86
75799;DHT22;70933;44.692;37.776;2024-03-02T03:48:25;24.03;13.90
75799;DHT22;70933;44.692;37.776;2024-03-02T03:49:31;24.04;13.84
75799;DHT22;70933;44.692;37.776;2024-03-02T03:50:33;24.04;13.79
75799;DHT22;70933;44.692;37.776;2024-03-02T03:51:34;24.04;13.80
75799;DHT22;70933;44.692;37.776;2024-03-02T03:52:36;24.04;13.65
75799;DHT22;70933;44.692;37.776;2024-03-02T03:53:38;24.04;13.69
75799;DHT22;70933;44.692;37.776;2024-03-02T03:54:39;24.04;14.00
75799;DHT22;70933;44.692;37.776;2024-03-02T03:55:41;24.02;13.97
75799;DHT22;70933;44.692;37.776;2024-03-02T03:56:43;24.05;13.63
75799;DHT22;70933;44.692;37.776;2024-03-02T03:57:44;24.04;13.53
75799;DHT22;70933;44.692;37.776;2024-03-02T03:58:46;24.04;13.98
75799;DHT22;70933;44.692;37.776;2024-03-02T03:59:47;24.05;13.99
75799;DHT22;70933;44.692;37.776;2024-03-02T04:00:49;24.04;13.80
75799;DHT22;70933;44.692;37.776;2024-03-02T04:01:50;24.03;14.09
75799;DHT22;70933;44.692;37.776;2024-03-02T04:02:52;24.04;14.17
75799;DHT22;70933;44.692;37.776;2024-03-02T04:03:53;24.03;13.84
75799;DHT22;70933;44.692;37.776;2024-03-02T04:04:55;24.04;13.91
75799;DHT22;70933;44.692;37.776;2024-03-02T04:05:56;24.02;13.99
75799;DHT22;70933;44.692;37.776;2024-03-02T04:06:58;24.02;13.89
75799;DHT22;70933;44.692;37.776;2024-03-02T04:07:59;24.02;13.95
75799;DHT22;70933;44.692;37.776;2024-03-02T04:09:02;24.03;13.84
75799;DHT22;70933;44.692;37.776;2024-03-02T04:10:08;24.02;13.81
75799;DHT22;70933;44.692;37.776;2024-03-02T04:11:10;24.01;13.94
75799;DHT22;70933;44.692;37.776;2024-03-02T04:12:11;24.02;14.05
75799;DHT22;70933;44.692;37.776;2024-03-02T04:13:14;24.02;13.99
75799;DHT22;70933;44.692;37.776;2024-03-02T04:14:15;24.02;13.91
75799;DHT22;70933;44.692;37.776;2024-03-02T04:15:17;24.02;14.02
75799;DHT22;70933;44.692;37.776;2024-03-02T04:16:20;24.01;13.95
75799;DHT22;70933;44.692;37.776;2024-03-02T04:17:21;24.01;13.90
75799;DHT22;70933;44.692;37.776;2024-03-02T04:18:22;24.02;13.69
75799;DHT22;70933;44.692;37.776;2024-03-02T04:19:24;24.01;13.83
75799;DHT22;70933;44.692;37.776;2024-03-02T04:20:26;24.02;14.16
75799;DHT22;70933;44.692;37.776;2024-03-02T04:21:27;24.03;14.30
75799;DHT22;70933;44.692;37.776;2024-03-02T04:22:29;24.02;14.17
75799;DHT22;70933;44.692;37.776;2024-03-02T04:23:30;24.02;14.04
75799;DHT22;70933;44.692;37.776;2024-03-02T04:24:32;24.01;14.06
75799;DHT22;70933;44.692;37.776;2024-03-02T04:25:33;24.02;14.26
75799;DHT22;70933;44.692;37.776;2024-03-02T04:26:35;24.02;14.10
75799;DHT22;70933;44.692;37.776;2024-03-02T04:27:36;24.02;13.99
75799;DHT22;70933;44.692;37.776;2024-03-02T04:28:38;24.03;14.37
75799;DHT22;70933;44.692;37.776;2024-03-02T04:29:39;24.02;14.13
75799;DHT22;70933;44.692;37.776;2024-03-02T04:30:41;24.02;14.26
75799;DHT22;70933;44.692;37.776;2024-03-02T04:31:43;24.02;14.17
75799;DHT22;70933;44.692;37.776;2024-03-02T04:32:44;24.02;14.07
75799;DHT22;70933;44.692;37.776;2024-03-02T04:33:50;24.01;14.20
75799;DHT22;70933;44.692;37.776;2024-03-02T04:34:51;24.02;14.24
75799;DHT22;70933;44.692;37.776;2024-03-02T04:35:53;24.02;14.06
75799;DHT22;70933;44.692;37.776;2024-03-02T04:36:54;24.01;14.36
75799;DHT22;70933;44.692;37.776;2024-03-02T04:37:56;24.02;13.95
75799;DHT22;70933;44.692;37.776;2024-03-02T04:38:57;24.03;14.49
75799;DHT22;70933;44.692;37.776;2024-03-02T04:39:59;24.02;13.82
75799;DHT22;70933;44.692;37.776;2024-03-02T04:41:00;24.01;14.17
75799;DHT22;70933;44.692;37.776;2024-03-02T04:42:02;24.01;14.27
75799;DHT22;70933;44.692;37.776;2024-03-02T04:43:04;24.02;14.15
75799;DHT22;70933;44.692;37.776;2024-03-02T04:44:05;24.02;14.21
75799;DHT22;70933;44.692;37.776;2024-03-02T04:45:09;24.01;14.16
75799;DHT22;70933;44.692;37.776;2024-03-02T04:46:10;24.02;14.31
75799;DHT22;70933;44.692;37.776;2024-03-02T04:47:12;24.02;14.20
75799;DHT22;70933;44.692;37.776;2024-03-02T04:48:16;24.01;14.29
75799;DHT22;70933;44.692;37.776;2024-03-02T04:49:17;24.01;14.08
75799;DHT22;70933;44.692;37.776;2024-03-02T04:50:24;24.01;14.15
75799;DHT22;70933;44.692;37.776;2024-03-02T04:51:25;24.01;14.14
75799;DHT22;70933;44.692;37.776;2024-03-02T04:52:27;24.01;14.11
75799;DHT22;70933;44.692;37.776;2024-03-02T04:53:28;24.02;14.16
75799;DHT22;70933;44.692;37.776;2024-03-02T04:54:30;24.02;14.16
75799;DHT22;70933;44.692;37.776;2024-03-02T04:55:32;24.01;14.24
75799;DHT22;70933;44.692;37.776;2024-03-02T04:56:36;24.01;14.03
75799;DHT22;70933;44.692;37.776;2024-03-02T04:57:45;24.00;14.16
75799;DHT22;70933;44.692;37.776;2024-03-02T04:58:47;24.01;14.10
75799;DHT22;70933;44.692;37.776;2024-03-02T04:59:49;24.01;14.08
75799;DHT22;70933;44.692;37.776;2024-03-02T05:00:50;24.03;14.25
75799;DHT22;70933;44.692;37.776;2024-03-02T05:01:52;24.01;14.21
75799;DHT22;70933;44.692;37.776;2024-03-02T05:02:53;24.01;14.20
75799;DHT22;70933;44.692;37.776;2024-03-02T05:03:55;24.01;14.39
75799;DHT22;70933;44.692;37.776;2024-03-02T05:04:57;24.01;14.05
75799;DHT22;70933;44.692;37.776;2024-03-02T05:05:59;24.00;14.22
75799;DHT22;70933;44.692;37.776;2024-03-02T05:07:00;24.01;14.20
75799;DHT22;70933;44.692;37.776;2024-03-02T05:08:02;24.01;14.27
75799;DHT22;70933;44.692;37.776;2024-03-02T05:09:04;24.01;14.19
75799;DHT22;70933;44.692;37.776;2024-03-02T05:10:06;24.01;14.00
75799;DHT22;70933;44.692;37.776;2024-03-02T05:11:07;24.01;14.22
75799;DHT22;70933;44.692;37.776;2024-03-02T05:12:27;24.01;13.91
75799;DHT22;70933;44.692;37.776;2024-03-02T05:13:44;24.00;14.33
75799;DHT22;70933;44.692;37.776;2024-03-02T05:14:46;24.01;14.20
75799;DHT22;70933;44.692;37.776;2024-03-02T05:15:47;24.01;14.19
75799;DHT22;70933;44.692;37.776;2024-03-02T05:16:49;24.01;14.04
75799;DHT22;70933;44.692;37.776;2024-03-02T05:17:50;24.00;14.14
75799;DHT22;70933;44.692;37.776;2024-03-02T05:18:52;24.01;14.10
75799;DHT22;70933;44.692;37.776;2024-03-02T05:19:54;24.00;14.16
75799;DHT22;70933;44.692;37.776;2024-03-02T05:20:55;24.00;14.11
75799;DHT22;70933;44.692;37.776;2024-03-02T05:21:57;23.99;14.00
75799;DHT22;70933;44.692;37.776;2024-03-02T05:22:58;24.00;14.25
75799;DHT22;70933;44.692;37.776;2024-03-02T05:24:00;23.99;14.09
75799;DHT22;70933;44.692;37.776;2024-03-02T05:25:02;24.00;14.11
75799;DHT22;70933;44.692;37.776;2024-03-02T05:26:07;24.00;14.03
75799;DHT22;70933;44.692;37.776;2024-03-02T05:27:09;23.99;14.17
75799;DHT22;70933;44.692;37.776;2024-03-02T05:28:11;23.99;14.30
75799;DHT22;70933;44.692;37.776;2024-03-02T05:29:13;24.00;14.28
75799;DHT22;70933;44.692;37.776;2024-03-02T05:30:15;23.98;14.03
75799;DHT22;70933;44.692;37.776;2024-03-02T05:31:17;23.98;13.99
75799;DHT22;70933;44.692;37.776;2024-03-02T05:32:19;24.00;13.92
75799;DHT22;70933;44.692;37.776;2024-03-02T05:33:20;23.99;13.82
75799;DHT22;70933;44.692;37.776;2024-03-02T05:34:23;23.99;13.79
75799;DHT22;70933;44.692;37.776;2024-03-02T05:35:25;23.98;13.84
75799;DHT22;70933;44.692;37.776;2024-03-02T05:36:26;23.98;13.97
75799;DHT22;70933;44.692;37.776;2024-03-02T05:37:28;23.99;14.03
75799;DHT22;70933;44.692;37.776;2024-03-02T05:38:29;23.97;14.06
75799;DHT22;70933;44.692;37.776;2024-03-02T05:39:31;23.97;14.03
75799;DHT22;70933;44.692;37.776;2024-03-02T05:40:32;23.98;13.93
75799;DHT22;70933;44.692;37.776;2024-03-02T05:41:34;23.97;13.84
75799;DHT22;70933;44.692;37.776;2024-03-02T05:42:36;23.97;13.97
75799;DHT22;70933;44.692;37.776;2024-03-02T05:43:38;23.97;13.95
75799;DHT22;70933;44.692;37.776;2024-03-02T05:44:40;23.97;14.15
75799;DHT22;70933;44.692;37.776;2024-03-02T05:45:41;23.98;14.20
75799;DHT22;70933;44.692;37.776;2024-03-02T05:46:43;23.98;13.84
75799;DHT22;70933;44.692;37.776;2024-03-02T05:47:44;23.98;13.96
75799;DHT22;70933;44.692;37.776;2024-03-02T05:48:46;23.97;13.93
75799;DHT22;70933;44.692;37.776;2024-03-02T05:49:47;23.98;13.99
75799;DHT22;70933;44.692;37.776;2024-03-02T05:50:49;23.97;14.07
75799;DHT22;70933;44.692;37.776;2024-03-02T05:51:50;23.98;14.00
75799;DHT22;70933;44.692;37.776;2024-03-02T05:52:52;23.98;14.03
75799;DHT22;70933;44.692;37.776;2024-03-02T05:53:53;23.96;14.22
75799;DHT22;70933;44.692;37.776;2024-03-02T05:54:55;23.97;14.12
75799;DHT22;70933;44.692;37.776;2024-03-02T05:55:56;23.98;14.09
75799;DHT22;70933;44.692;37.776;2024-03-02T05:56:57;23.99;13.98
75799;DHT22;70933;44.692;37.776;2024-03-02T05:58:17;23.97;14.01
75799;DHT22;70933;44.692;37.776;2024-03-02T05:59:32;23.97;13.88
75799;DHT22;70933;44.692;37.776;2024-03-02T06:00:34;23.96;13.78
75799;DHT22;70933;44.692;37.776;2024-03-02T06:01:35;23.96;13.87
75799;DHT22;70933;44.692;37.776;2024-03-02T06:02:40;23.97;13.91
75799;DHT22;70933;44.692;37.776;2024-03-02T06:03:48;23.98;13.87
75799;DHT22;70933;44.692;37.776;2024-03-02T06:04:50;23.97;14.00
75799;DHT22;70933;44.692;37.776;2024-03-02T06:05:51;23.98;14.07
75799;DHT22;70933;44.692;37.776;2024-03-02T06:06:53;23.98;13.87
75799;DHT22;70933;44.692;37.776;2024-03-02T06:07:55;23.98;13.85
75799;DHT22;70933;44.692;37.776;2024-03-02T06:08:57;23.98;13.82
75799;DHT22;70933;44.692;37.776;2024-03-02T06:09:59;23.99;14.14
75799;DHT22;70933;44.692;37.776;2024-03-02T06:11:01;23.98;14.04
75799;DHT22;70933;44.692;37.776;2024-03-02T06:12:03;23.98;14.11
75799;DHT22;70933;44.692;37.776;2024-03-02T06:13:05;23.99;13.93
75799;DHT22;70933;44.692;37.776;2024-03-02T06:14:08;23.98;14.06
75799;DHT22;70933;44.692;37.776;2024-03-02T06:15:10;23.99;14.13
75799;DHT22;70933;44.692;37.776;2024-03-02T06:16:12;23.98;14.05
75799;DHT22;70933;44.692;37.776;2024-03-02T06:17:13;23.99;14.10
75799;DHT22;70933;44.692;37.776;2024-03-02T06:18:15;23.99;14.32
75799;DHT22;70933;44.692;37.776;2024-03-02T06:19:17;24.00;14.03
75799;DHT22;70933;44.692;37.776;2024-03-02T06:20:19;23.99;13.83
75799;DHT22;70933;44.692;37.776;2024-03-02T06:21:20;23.98;14.03
75799;DHT22;70933;44.692;37.776;2024-03-02T06:22:22;23.97;13.82
75799;DHT22;70933;44.692;37.776;2024-03-02T06:23:26;23.97;13.98
75799;DHT22;70933;44.692;37.776;2024-03-02T06:24:27;23.97;13.84
75799;DHT22;70933;44.692;37.776;2024-03-02T06:25:29;23.96;14.40
75799;DHT22;70933;44.692;37.776;2024-03-02T06:26:30;23.98;13.96
75799;DHT22;70933;44.692;37.776;2024-03-02T06:27:32;23.98;13.81
75799;DHT22;70933;44.692;37.776;2024-03-02T06:28:34;23.98;14.04